Airport View

Enter AWOS ICAO identifier for current METAR.

KFNL for example

KPSO 221135Z AUTO 00000KT 10SM BKN090 10/01 A3006 RMK AO2 T00970009

22 Sep 2017 11:43

Frequency: 127.175

Phone: 970-731-0365

Other Area AWOS: KCPW - KDRO - KRCV - KTEX

TAF KALS 220530Z 2206/2306 19009KT P6SM SKC FM221400 20015G25KT P6SM FEW250 FM221800 22030G40KT P6SM FEW120 SCT250 FM230100 19014KT P6SM SCT100 BKN200